createdAt,value
2018-04-22T00:00:25.606Z,31.00
2018-04-22T00:02:55.594Z,15.10
2018-04-22T00:05:25.104Z,19.58
2018-04-22T00:07:54.349Z,12.50
2018-04-22T00:10:24.532Z,13.68
2018-04-22T00:12:54.567Z,22.77
2018-04-22T00:15:24.570Z,14.02
2018-04-22T00:17:53.818Z,11.48
2018-04-22T00:20:23.161Z,11.90
2018-04-22T00:22:52.925Z,12.88
2018-04-22T00:25:22.582Z,11.90
2018-04-22T00:27:52.066Z,11.07
2018-04-22T00:30:21.598Z,12.65
2018-04-22T00:32:51.790Z,12.23
2018-04-22T00:35:21.217Z,11.60
2018-04-22T00:37:50.746Z,15.00
2018-04-22T00:40:21.453Z,14.60
2018-04-22T00:42:50.684Z,18.08
2018-04-22T00:45:20.062Z,26.70
2018-04-22T00:47:49.286Z,13.00
2018-04-22T00:50:19.289Z,12.25
2018-04-22T00:52:50.014Z,13.93
2018-04-22T00:55:20.142Z,20.88
2018-04-22T00:57:49.642Z,13.80
2018-04-22T01:00:18.870Z,16.98
2018-04-22T01:02:48.426Z,21.30
2018-04-22T01:05:17.666Z,11.95
2018-04-22T01:07:47.046Z,14.73
2018-04-22T01:10:16.279Z,22.02
2018-04-22T01:12:45.654Z,15.45
2018-04-22T01:15:15.616Z,17.85
2018-04-22T01:17:45.090Z,13.80
2018-04-22T01:20:14.448Z,27.70
2018-04-22T01:22:44.291Z,19.80
2018-04-22T01:25:15.381Z,11.65
2018-04-22T01:27:44.942Z,16.23
2018-04-22T01:30:14.571Z,12.63
2018-04-22T01:32:44.012Z,14.70
2018-04-22T01:35:13.221Z,11.85
2018-04-22T01:37:42.447Z,12.30
2018-04-22T01:40:12.674Z,14.07
2018-04-22T01:42:41.901Z,11.05
2018-04-22T01:45:11.273Z,20.52
2018-04-22T01:47:40.504Z,20.85
2018-04-22T01:50:14.613Z,24.37
2018-04-22T01:52:43.826Z,19.20
2018-04-22T01:55:13.199Z,12.70
2018-04-22T01:57:44.366Z,20.95
2018-04-22T02:00:14.662Z,17.27
2018-04-22T02:02:43.889Z,13.15
2018-04-22T02:05:13.267Z,11.02
2018-04-22T02:07:42.886Z,10.77
2018-04-22T02:10:12.712Z,11.12
2018-04-22T02:12:42.728Z,10.30
2018-04-22T02:15:12.352Z,11.85
2018-04-22T02:17:42.371Z,19.27
2018-04-22T02:20:11.740Z,12.43
2018-04-22T02:22:41.550Z,12.27
2018-04-22T02:25:10.954Z,18.92
2018-04-22T02:27:40.174Z,12.13
2018-04-22T02:30:09.557Z,15.40
2018-04-22T02:32:39.043Z,14.25
2018-04-22T02:35:08.799Z,12.15
2018-04-22T02:37:38.807Z,11.80
2018-04-22T02:40:08.218Z,9.32
2018-04-22T02:42:39.257Z,14.10
2018-04-22T02:45:09.435Z,15.95
2018-04-22T02:47:39.502Z,17.27
2018-04-22T02:50:09.288Z,11.48
2018-04-22T02:52:38.791Z,16.85
2018-04-22T02:55:08.800Z,18.83
2018-04-22T02:57:40.263Z,14.05
2018-04-22T03:00:10.134Z,15.55
2018-04-22T03:02:39.474Z,13.52
2018-04-22T03:05:08.702Z,15.00
2018-04-22T03:07:38.091Z,13.48
2018-04-22T03:10:08.115Z,14.82
2018-04-22T03:12:37.509Z,14.63
2018-04-22T03:15:06.738Z,12.73
2018-04-22T03:17:36.311Z,13.23
2018-04-22T03:20:05.543Z,17.73
2018-04-22T03:22:35.338Z,19.80
2018-04-22T03:25:04.538Z,12.95
2018-04-22T03:27:33.928Z,16.52
2018-04-22T03:30:03.152Z,14.95
2018-04-22T03:32:32.519Z,12.05
2018-04-22T03:35:01.751Z,13.75
2018-04-22T03:37:31.145Z,17.70
2018-04-22T03:40:01.135Z,11.45
2018-04-22T03:42:30.655Z,11.20
2018-04-22T03:44:59.875Z,11.88
2018-04-22T03:47:30.086Z,10.75
2018-04-22T03:49:59.302Z,11.65
2018-04-22T03:52:28.770Z,11.23
2018-04-22T03:54:58.001Z,11.65
2018-04-22T03:57:27.375Z,10.85
2018-04-22T03:59:56.880Z,11.65
2018-04-22T04:02:26.102Z,14.20
2018-04-22T04:04:55.479Z,13.62
2018-04-22T04:07:24.709Z,11.43
2018-04-22T04:09:54.095Z,12.10
2018-04-22T04:12:23.735Z,10.70
2018-04-22T04:14:53.910Z,11.68
2018-04-22T04:17:23.138Z,11.55
2018-04-22T04:20:10.341Z,11.38
2018-04-22T04:22:46.067Z,11.02
2018-04-22T04:28:38.645Z,11.80
2018-04-22T04:31:08.159Z,10.88
2018-04-22T04:33:37.887Z,10.70
2018-04-22T04:36:08.047Z,10.95
2018-04-22T04:38:37.219Z,12.10
2018-04-22T04:41:07.618Z,11.35
2018-04-22T04:43:37.571Z,11.80
2018-04-22T04:46:07.778Z,12.43
2018-04-22T04:48:37.311Z,13.15
2018-04-22T04:51:07.709Z,12.77
2018-04-22T04:53:37.107Z,13.40
2018-04-22T04:56:07.527Z,13.45
2018-04-22T04:58:37.838Z,15.32
2018-04-22T05:01:07.180Z,15.15
2018-04-22T05:03:36.803Z,13.68
2018-04-22T05:06:06.033Z,11.50
2018-04-22T05:08:35.584Z,11.45
2018-04-22T05:11:05.584Z,11.73
2018-04-22T05:13:35.184Z,11.05
2018-04-22T05:16:04.692Z,12.18
2018-04-22T05:18:34.195Z,11.50
2018-04-22T05:21:04.639Z,11.98
2018-04-22T05:23:34.028Z,12.27
2018-04-22T05:26:03.269Z,13.15
2018-04-22T05:28:32.631Z,10.75
2018-04-22T05:31:01.883Z,13.57
2018-04-22T05:33:31.252Z,11.65
2018-04-22T05:36:01.256Z,11.80
2018-04-22T05:38:30.658Z,10.55
2018-04-22T05:41:00.234Z,10.32
2018-04-22T05:43:29.831Z,11.10
2018-04-22T05:45:59.300Z,11.38
2018-04-22T05:48:28.965Z,11.30
2018-04-22T05:50:58.387Z,10.80
2018-04-22T05:53:27.647Z,11.00
2018-04-22T05:55:57.408Z,9.97
2018-04-22T05:58:27.575Z,11.50
2018-04-22T06:00:57.026Z,10.83
2018-04-22T06:03:26.565Z,10.80
2018-04-22T06:05:56.039Z,11.10
2018-04-22T06:08:26.058Z,9.77
2018-04-22T06:10:55.458Z,9.60
2018-04-22T06:13:24.950Z,9.70
2018-04-22T06:15:54.484Z,9.37
2018-04-22T06:18:24.506Z,8.93
2018-04-22T06:20:54.087Z,9.03
2018-04-22T06:23:23.317Z,8.50
2018-04-22T06:25:52.705Z,7.47
2018-04-22T06:28:22.154Z,7.00
2018-04-22T06:30:51.514Z,8.30
2018-04-22T06:33:22.374Z,7.00
2018-04-22T06:35:51.759Z,7.10
2018-04-22T06:38:20.997Z,6.47
2018-04-22T06:40:50.665Z,7.40
2018-04-22T06:43:20.055Z,5.90
2018-04-22T06:45:49.321Z,6.57
2018-04-22T06:48:18.771Z,6.10
2018-04-22T06:50:48.327Z,7.00
2018-04-22T06:53:18.296Z,7.90
2018-04-22T06:55:48.153Z,8.50
2018-04-22T06:58:17.520Z,8.73
2018-04-22T07:00:48.527Z,7.07
2018-04-22T07:03:17.875Z,7.23
2018-04-22T07:05:47.121Z,7.10
2018-04-22T07:08:16.544Z,7.00
2018-04-22T07:10:45.783Z,7.03
2018-04-22T07:13:15.147Z,5.73
2018-04-22T07:15:45.583Z,5.20
2018-04-22T07:18:14.978Z,5.50
2018-04-22T07:20:44.876Z,4.97
2018-04-22T07:23:14.403Z,5.00
2018-04-22T07:25:44.316Z,6.00
2018-04-22T07:28:13.552Z,4.67
2018-04-22T07:30:43.848Z,4.80
2018-04-22T07:33:13.088Z,5.50
2018-04-22T07:35:42.444Z,5.07
2018-04-22T07:38:11.671Z,4.33
2018-04-22T07:40:41.065Z,4.67
2018-04-22T07:43:11.300Z,5.83
2018-04-22T07:45:40.724Z,6.07
2018-04-22T07:48:10.028Z,5.83
2018-04-22T07:50:39.376Z,5.37
2018-04-22T07:53:09.529Z,5.50
2018-04-22T07:55:39.103Z,5.00
2018-04-22T07:58:08.346Z,4.80
2018-04-22T08:00:37.713Z,4.90
2018-04-22T08:03:06.954Z,5.30
2018-04-22T08:05:36.311Z,5.17
2018-04-22T08:08:05.899Z,5.77
2018-04-22T08:10:35.318Z,5.83
2018-04-22T08:13:05.038Z,4.37
2018-04-22T08:15:35.164Z,4.60
2018-04-22T08:18:04.650Z,5.80
2018-04-22T08:20:34.162Z,4.15
2018-04-22T08:23:03.459Z,4.62
2018-04-22T08:25:32.701Z,5.10
2018-04-22T08:28:02.078Z,5.15
2018-04-22T08:30:32.088Z,4.80
2018-04-22T08:33:01.492Z,5.28
2018-04-22T08:35:30.727Z,5.00
2018-04-22T08:38:00.094Z,4.70
2018-04-22T08:40:29.326Z,4.65
2018-04-22T08:42:58.687Z,4.75
2018-04-22T08:45:27.928Z,5.00
2018-04-22T08:47:57.288Z,5.43
2018-04-22T08:50:27.199Z,5.10
2018-04-22T08:52:56.919Z,4.80
2018-04-22T08:55:26.155Z,4.45
2018-04-22T08:57:55.723Z,4.78
2018-04-22T09:00:25.103Z,4.70
2018-04-22T09:02:54.604Z,6.00
2018-04-22T09:05:25.291Z,4.37
2018-04-22T09:07:55.586Z,5.45
2018-04-22T09:10:25.427Z,5.40
2018-04-22T09:12:54.659Z,4.60
2018-04-22T09:15:24.102Z,4.80
2018-04-22T09:17:53.347Z,4.70
2018-04-22T09:20:22.910Z,4.62
2018-04-22T09:22:52.211Z,4.53
2018-04-22T09:25:21.714Z,4.15
2018-04-22T09:27:50.963Z,4.85
2018-04-22T09:30:20.325Z,4.43
2018-04-22T09:32:49.642Z,4.22
2018-04-22T09:35:19.023Z,4.47
2018-04-22T09:37:48.275Z,3.45
2018-04-22T09:40:18.239Z,3.70
2018-04-22T09:42:48.661Z,3.50
2018-04-22T09:45:18.073Z,3.55
2018-04-22T09:47:48.327Z,3.50
2018-04-22T09:50:17.699Z,3.22
2018-04-22T09:52:47.006Z,4.80
2018-04-22T09:55:16.502Z,3.33
2018-04-22T09:57:45.771Z,6.85
2018-04-22T10:00:20.865Z,2.80
2018-04-22T10:02:50.154Z,3.55
2018-04-22T10:05:24.052Z,3.37
2018-04-22T10:07:53.494Z,4.05
2018-04-22T10:10:22.756Z,4.20
2018-04-22T10:12:52.879Z,3.55
2018-04-22T10:15:22.116Z,3.97
2018-04-22T10:17:51.486Z,6.25
2018-04-22T10:20:20.719Z,5.77
2018-04-22T10:22:50.282Z,3.60
2018-04-22T10:25:19.535Z,4.37
2018-04-22T10:27:48.929Z,3.83
2018-04-22T10:30:18.191Z,3.87
2018-04-22T10:32:47.538Z,3.83
2018-04-22T10:35:17.013Z,4.10
2018-04-22T10:37:47.324Z,5.20
2018-04-22T10:40:17.258Z,6.37
2018-04-22T10:42:47.515Z,4.53
2018-04-22T10:45:16.747Z,4.70
2018-04-22T10:47:46.227Z,4.77
2018-04-22T10:50:15.861Z,4.23
2018-04-22T10:52:45.231Z,4.10
2018-04-22T10:55:14.533Z,4.23
2018-04-22T10:57:44.027Z,3.80
2018-04-22T11:00:13.691Z,3.87
2018-04-22T11:02:42.927Z,6.03
2018-04-22T11:05:12.395Z,4.73
2018-04-22T11:07:41.714Z,4.43
2018-04-22T11:10:12.019Z,3.73
2018-04-22T11:12:42.074Z,3.80
2018-04-22T11:15:11.448Z,3.57
2018-04-22T11:17:40.691Z,4.07
2018-04-22T11:20:10.259Z,4.63
2018-04-22T11:22:39.492Z,4.77
2018-04-22T11:25:08.866Z,5.57
2018-04-22T11:27:38.103Z,4.07
2018-04-22T11:30:07.461Z,4.00
2018-04-22T11:32:36.705Z,3.90
2018-04-22T11:35:06.062Z,4.67
2018-04-22T11:37:35.287Z,3.50
2018-04-22T11:40:04.979Z,5.40
2018-04-22T11:42:34.991Z,3.47
2018-04-22T11:45:05.157Z,4.00
2018-04-22T11:47:34.395Z,3.70
2018-04-22T11:50:03.627Z,3.40
2018-04-22T11:52:33.011Z,3.50
2018-04-22T11:55:03.093Z,5.07
2018-04-22T11:57:32.523Z,3.40
2018-04-22T12:00:01.847Z,2.67
2018-04-22T12:02:31.265Z,3.30
2018-04-22T12:05:00.457Z,4.20
2018-04-22T12:07:29.837Z,3.03
2018-04-22T12:09:59.063Z,3.77
2018-04-22T12:12:28.435Z,3.20
2018-04-22T12:14:57.935Z,2.93
2018-04-22T12:17:27.451Z,2.80
2018-04-22T12:19:56.683Z,3.07
2018-04-22T12:22:26.051Z,2.50
2018-04-22T12:24:56.117Z,2.10
2018-04-22T12:27:25.905Z,2.33
2018-04-22T12:29:55.125Z,2.00
2018-04-22T12:32:24.879Z,1.93
2018-04-22T12:34:55.418Z,2.53
2018-04-22T12:37:24.875Z,2.20
2018-04-22T12:39:54.472Z,2.10
2018-04-22T12:42:24.152Z,2.27
2018-04-22T12:44:54.393Z,3.70
2018-04-22T12:47:24.386Z,2.63
2018-04-22T12:49:53.615Z,2.90
2018-04-22T12:52:22.988Z,2.60
2018-04-22T12:54:52.294Z,2.93
2018-04-22T12:57:21.799Z,3.77
2018-04-22T12:59:51.185Z,2.90
2018-04-22T13:02:20.632Z,3.00
2018-04-22T13:04:50.851Z,2.50
2018-04-22T13:07:20.078Z,2.90
2018-04-22T13:09:49.538Z,2.90
2018-04-22T13:12:20.115Z,3.60
2018-04-22T13:14:49.498Z,3.30
2018-04-22T13:17:19.523Z,2.57
2018-04-22T13:19:48.898Z,3.60
2018-04-22T13:22:18.848Z,3.07
2018-04-22T13:24:48.935Z,2.70
2018-04-22T13:27:18.571Z,2.67
2018-04-22T13:29:47.951Z,2.97
2018-04-22T13:32:18.669Z,2.70
2018-04-22T13:34:48.181Z,2.67
2018-04-22T13:37:18.020Z,3.23
2018-04-22T13:39:47.602Z,2.70
2018-04-22T13:42:16.935Z,3.10
2018-04-22T13:44:47.031Z,2.80
2018-04-22T13:47:17.942Z,2.93
2018-04-22T13:49:47.475Z,2.80
2018-04-22T13:52:16.898Z,5.00
2018-04-22T13:54:46.741Z,3.40
2018-04-22T13:57:15.967Z,4.17
2018-04-22T13:59:45.605Z,3.47
2018-04-22T14:02:14.839Z,3.30
2018-04-22T14:04:44.283Z,3.10
2018-04-22T14:07:13.525Z,3.27
2018-04-22T14:09:42.850Z,3.87
2018-04-22T14:12:12.095Z,3.63
2018-04-22T14:14:41.806Z,3.83
2018-04-22T14:17:11.038Z,2.83
2018-04-22T14:19:41.179Z,5.43
2018-04-22T14:22:10.376Z,3.63
2018-04-22T14:24:39.610Z,3.13
2018-04-22T14:27:09.134Z,3.43
2018-04-22T14:29:38.367Z,3.10
2018-04-22T14:32:09.219Z,3.70
2018-04-22T14:34:38.851Z,4.10
2018-04-22T14:37:08.387Z,3.73
2018-04-22T14:39:37.626Z,4.73
2018-04-22T14:42:06.991Z,4.63
2018-04-22T14:44:53.914Z,3.90
2018-04-22T14:47:23.411Z,6.53
2018-04-22T14:49:52.662Z,5.40
2018-04-22T14:52:22.236Z,3.60
2018-04-22T14:54:52.233Z,4.30
2018-04-22T14:57:21.635Z,4.00
2018-04-22T14:59:51.142Z,8.43
2018-04-22T15:02:21.519Z,3.40
2018-04-22T15:04:51.647Z,3.63
2018-04-22T15:07:21.917Z,3.93
2018-04-22T15:09:51.156Z,4.40
2018-04-22T15:12:20.522Z,4.30
2018-04-22T15:14:50.211Z,4.10
2018-04-22T15:17:19.458Z,3.80
2018-04-22T15:19:48.827Z,4.03
2018-04-22T15:22:18.066Z,3.77
2018-04-22T15:24:47.863Z,4.00
2018-04-22T15:27:17.865Z,3.90
2018-04-22T15:29:47.202Z,4.00
2018-04-22T15:32:16.455Z,4.00
2018-04-22T15:34:46.738Z,3.07
2018-04-22T15:37:16.006Z,3.00
2018-04-22T15:39:45.427Z,3.53
2018-04-22T15:42:14.670Z,10.20
2018-04-22T15:44:44.098Z,3.10
2018-04-22T15:47:14.135Z,3.03
2018-04-22T15:49:43.519Z,3.37
2018-04-22T15:52:12.769Z,3.50
2018-04-22T15:54:42.955Z,3.87
2018-04-22T15:57:12.951Z,3.60
2018-04-22T15:59:43.284Z,3.57
2018-04-22T16:02:12.724Z,4.70
2018-04-22T16:04:42.804Z,4.20
2018-04-22T16:07:12.039Z,4.83
2018-04-22T16:09:41.283Z,3.03
2018-04-22T16:12:10.706Z,5.17
2018-04-22T16:14:40.003Z,3.90
2018-04-22T16:17:09.537Z,4.13
2018-04-22T16:19:38.962Z,3.33
2018-04-22T16:22:08.928Z,2.93
2018-04-22T16:24:38.575Z,3.23
2018-04-22T16:27:07.941Z,3.27
2018-04-22T16:29:37.174Z,3.90
2018-04-22T16:32:06.547Z,3.40
2018-04-22T16:34:36.280Z,2.70
2018-04-22T16:37:06.584Z,3.20
2018-04-22T16:39:35.821Z,3.60
2018-04-22T16:42:05.200Z,3.37
2018-04-22T16:44:35.203Z,3.50
2018-04-22T16:47:04.612Z,3.60
2018-04-22T16:49:33.887Z,3.50
2018-04-22T16:52:03.442Z,3.50
2018-04-22T16:54:33.539Z,3.50
2018-04-22T16:57:03.864Z,3.67
2018-04-22T16:59:33.366Z,3.90
2018-04-22T17:02:03.443Z,3.20
2018-04-22T17:04:32.992Z,3.47
2018-04-22T17:07:03.147Z,4.50
2018-04-22T17:09:33.327Z,3.10
2018-04-22T17:12:03.034Z,3.17
2018-04-22T17:14:32.395Z,4.27
2018-04-22T17:17:01.624Z,3.20
2018-04-22T17:19:30.971Z,3.20
2018-04-22T17:22:00.220Z,3.53
2018-04-22T17:24:29.666Z,4.20
2018-04-22T17:26:59.676Z,3.60
2018-04-22T17:29:29.686Z,3.57
2018-04-22T17:31:59.201Z,4.10
2018-04-22T17:34:28.429Z,3.53
2018-04-22T17:36:57.799Z,4.00
2018-04-22T17:39:27.436Z,4.70
2018-04-22T17:41:57.023Z,4.43
2018-04-22T17:44:26.259Z,4.80
2018-04-22T17:46:55.918Z,3.83
2018-04-22T17:49:26.322Z,4.47
2018-04-22T17:51:55.751Z,4.00
2018-04-22T17:54:24.990Z,4.20
2018-04-22T17:56:54.352Z,4.30
2018-04-22T17:59:23.748Z,4.60
2018-04-22T18:01:53.159Z,5.03
2018-04-22T18:04:22.415Z,5.60
2018-04-22T18:06:51.759Z,5.70
2018-04-22T18:09:21.575Z,4.73
2018-04-22T18:11:50.930Z,4.37
2018-04-22T18:14:20.170Z,5.03
2018-04-22T18:16:49.631Z,5.43
2018-04-22T18:19:18.871Z,4.97
2018-04-22T18:21:48.675Z,5.00
2018-04-22T18:24:18.720Z,4.27
2018-04-22T18:26:48.088Z,5.00
2018-04-22T18:29:17.540Z,4.33
2018-04-22T18:31:46.774Z,4.87
2018-04-22T18:34:16.136Z,4.50
2018-04-22T18:36:45.399Z,4.97
2018-04-22T18:39:14.826Z,4.73
2018-04-22T18:41:44.084Z,4.60
2018-04-22T18:44:13.427Z,4.63
2018-04-22T18:46:42.659Z,4.83
2018-04-22T18:49:11.999Z,6.30
2018-04-22T18:51:41.239Z,5.23
2018-04-22T18:54:10.626Z,4.77
2018-04-22T18:56:39.867Z,5.97
2018-04-22T18:59:10.872Z,6.80
2018-04-22T19:01:40.254Z,7.23
2018-04-22T19:04:09.491Z,5.47
2018-04-22T19:06:39.587Z,5.70
2018-04-22T19:09:09.560Z,6.07
2018-04-22T19:11:39.318Z,6.00
2018-04-22T19:14:10.003Z,5.80
2018-04-22T19:16:39.830Z,6.40
2018-04-22T19:19:09.086Z,5.80
2018-04-22T19:21:38.546Z,5.90
2018-04-22T19:24:08.081Z,6.18
2018-04-22T19:26:37.494Z,7.83
2018-04-22T19:29:07.517Z,6.18
2018-04-22T19:31:36.907Z,6.57
2018-04-22T19:34:07.154Z,6.65
2018-04-22T19:36:36.532Z,6.90
2018-04-22T19:39:06.742Z,7.68
2018-04-22T19:41:36.258Z,7.00
2018-04-22T19:44:05.494Z,7.37
2018-04-22T19:46:34.962Z,7.70
2018-04-22T19:49:04.348Z,7.80
2018-04-22T19:51:33.770Z,8.37
2018-04-22T19:54:03.871Z,9.00
2018-04-22T19:56:33.402Z,7.18
2018-04-22T19:59:04.191Z,8.20
2018-04-22T20:01:35.270Z,8.57
2018-04-22T20:04:05.283Z,7.70
2018-04-22T20:06:34.699Z,8.52
2018-04-22T20:09:05.051Z,8.35
2018-04-22T20:11:34.387Z,8.37
2018-04-22T20:14:03.840Z,8.40
2018-04-22T20:16:33.862Z,8.50
2018-04-22T20:19:03.473Z,7.80
2018-04-22T20:21:33.478Z,9.37
2018-04-22T20:24:02.882Z,8.17
2018-04-22T20:26:32.924Z,8.65
2018-04-22T20:29:03.215Z,8.33
2018-04-22T20:31:33.746Z,10.53
2018-04-22T20:34:03.304Z,8.43
2018-04-22T20:36:32.544Z,19.90
2018-04-22T20:39:02.583Z,11.33
2018-04-22T20:41:31.950Z,9.57
2018-04-22T20:44:02.503Z,9.53
2018-04-22T20:46:32.258Z,10.07
2018-04-22T20:49:01.930Z,11.30
2018-04-22T20:51:31.958Z,9.63
2018-04-22T20:54:01.546Z,10.00
2018-04-22T20:56:30.787Z,9.60
2018-04-22T20:59:00.664Z,11.98
2018-04-22T21:01:30.075Z,12.57
2018-04-22T21:04:00.622Z,11.10
2018-04-22T21:06:30.922Z,12.97
2018-04-22T21:09:00.789Z,13.80
2018-04-22T21:11:30.546Z,11.75
2018-04-22T21:13:59.879Z,11.70
2018-04-22T21:16:29.358Z,11.50
2018-04-22T21:18:58.890Z,11.80
2018-04-22T21:21:28.375Z,11.80
2018-04-22T21:23:58.389Z,8.40
2018-04-22T21:26:27.794Z,9.50
2018-04-22T21:28:58.604Z,9.05
2018-04-22T21:31:28.035Z,11.20
2018-04-22T21:33:58.107Z,7.40
2018-04-22T21:36:27.398Z,7.50
2018-04-22T21:38:56.640Z,7.57
2018-04-22T21:41:26.054Z,7.25
2018-04-22T21:43:55.479Z,19.10
2018-04-22T21:46:24.735Z,9.75
2018-04-22T21:48:54.081Z,7.90
2018-04-22T21:51:23.332Z,15.02
2018-04-22T21:53:52.772Z,7.20
2018-04-22T21:56:22.784Z,8.80
2018-04-22T21:58:53.719Z,9.93
2018-04-22T22:01:24.371Z,9.30
2018-04-22T22:03:54.475Z,6.95
2018-04-22T22:06:24.483Z,6.82
2018-04-22T22:08:54.021Z,7.25
2018-04-22T22:11:23.230Z,11.95
2018-04-22T22:13:52.907Z,8.98
2018-04-22T22:16:22.871Z,8.77
2018-04-22T22:18:52.236Z,8.85
2018-04-22T22:21:21.480Z,9.85
2018-04-22T22:23:51.245Z,9.00
2018-04-22T22:26:20.467Z,9.02
2018-04-22T22:28:49.952Z,9.23
2018-04-22T22:31:20.982Z,9.43
2018-04-22T22:33:50.408Z,15.10
2018-04-22T22:36:19.659Z,9.40
2018-04-22T22:38:49.706Z,10.07
2018-04-22T22:41:19.115Z,8.48
2018-04-22T22:43:49.131Z,9.23
2018-04-22T22:46:18.580Z,10.75
2018-04-22T22:48:48.547Z,7.05
2018-04-22T22:51:17.952Z,8.80
2018-04-22T22:53:47.194Z,7.95
2018-04-22T22:56:16.773Z,9.77
2018-04-22T22:58:45.999Z,9.95
2018-04-22T23:01:15.567Z,7.28
2018-04-22T23:03:45.126Z,12.85
2018-04-22T23:06:14.578Z,15.35
2018-04-22T23:08:44.587Z,7.97
2018-04-22T23:11:14.006Z,8.30
2018-04-22T23:13:43.238Z,7.25
2018-04-22T23:16:12.655Z,13.27
2018-04-22T23:18:42.107Z,12.52
2018-04-22T23:21:11.351Z,8.40
2018-04-22T23:23:40.702Z,8.13
2018-04-22T23:26:10.843Z,8.43
2018-04-22T23:28:41.151Z,8.88
2018-04-22T23:31:10.398Z,10.25
2018-04-22T23:33:39.764Z,14.73
2018-04-22T23:36:09.003Z,13.10
2018-04-22T23:38:38.372Z,12.32
2018-04-22T23:41:08.387Z,13.52
2018-04-22T23:43:37.778Z,12.37
2018-04-22T23:46:07.026Z,11.02
2018-04-22T23:48:36.587Z,15.80
2018-04-22T23:51:05.826Z,11.43
2018-04-22T23:53:35.063Z,18.60
2018-04-22T23:56:04.483Z,10.30
2018-04-22T23:58:33.684Z,14.00
